Time;durP1;ratioP1;P1;durP2;ratioP2;P2;SDS_P1;SDS_P2;PMS_P1;PMS_P2;Temp;Humidity;BMP_temperature;BMP_pressure;BME280_temperature;BME280_humidity;BME280_pressure;Samples;Min_cycle;Max_cycle;Signal;HPM_P1;HPM_P2
2022/11/17 00:01:25;;;;;;;14.47;10.80;;;;;;;20.51;46.04;99469.56;1661087;84;21097;-93
2022/11/17 00:03:51;;;;;;;12.80;10.45;;;;;;;20.51;46.03;99465.99;1661853;85;21630;-92
2022/11/17 00:06:22;;;;;;;12.95;10.53;;;;;;;20.52;46.04;99463.46;1668977;83;21101;-92
2022/11/17 00:08:47;;;;;;;13.55;10.38;;;;;;;20.52;46.01;99462.08;1660328;85;21047;-91
2022/11/17 00:11:13;;;;;;;12.43;10.35;;;;;;;20.51;45.99;99449.41;1686982;83;21062;-93
2022/11/17 00:16:24;;;;;;;12.30;10.28;;;;;;;20.51;45.98;99454.94;1670215;85;21120;-93
2022/11/17 00:21:41;;;;;;;14.15;10.38;;;;;;;20.50;45.95;99457.47;1687498;85;21521;-93
2022/11/17 00:24:07;;;;;;;15.03;10.45;;;;;;;20.48;45.93;99452.88;1662976;85;21530;-93
2022/11/17 00:27:00;;;;;;;15.48;11.70;;;;;;;20.48;45.93;99450.13;1661050;84;21065;-93
2022/11/17 00:29:04;;;;;;;13.78;10.38;;;;;;;20.47;45.92;99439.64;1681742;83;21200;-91
2022/11/17 00:34:20;;;;;;;13.05;10.80;;;;;;;20.48;45.91;99439.07;1683021;85;21580;-93
2022/11/17 00:36:52;;;;;;;14.73;10.55;;;;;;;20.47;45.92;99431.93;1665426;83;21061;-91
2022/11/17 00:39:20;;;;;;;12.33;10.10;;;;;;;20.46;45.88;99426.98;1667489;85;21524;-92
2022/11/17 00:41:47;;;;;;;12.73;10.35;;;;;;;20.46;45.88;99410.40;1686996;84;21181;-91
2022/11/17 00:44:19;;;;;;;13.22;10.30;;;;;;;20.46;45.89;99408.21;1679868;85;21081;-93
2022/11/17 00:46:50;;;;;;;13.20;10.25;;;;;;;20.46;45.87;99412.36;1659318;84;21137;-93
2022/11/17 00:49:18;;;;;;;12.90;10.48;;;;;;;20.45;45.87;99413.53;1644861;84;21093;-92
2022/11/17 00:51:45;;;;;;;13.58;10.43;;;;;;;20.44;45.86;99412.73;1659609;86;21065;-93
2022/11/17 00:54:14;;;;;;;13.93;10.98;;;;;;;20.45;45.86;99421.22;1656548;84;21413;-92
2022/11/17 00:56:40;;;;;;;12.28;10.32;;;;;;;20.44;45.83;99425.16;1640349;86;21153;-93
2022/11/17 00:59:06;;;;;;;15.30;10.53;;;;;;;20.45;45.84;99427.34;1669729;85;21496;-92
2022/11/17 01:01:33;;;;;;;13.85;10.85;;;;;;;20.44;45.82;99403.62;1640586;86;21100;-93
2022/11/17 01:04:02;;;;;;;13.58;10.58;;;;;;;20.43;45.80;99404.20;1683022;84;21070;-92
2022/11/17 01:06:36;;;;;;;12.73;10.28;;;;;;;20.43;45.81;99401.44;1659500;85;39215;-93
2022/11/17 01:09:05;;;;;;;12.53;10.30;;;;;;;20.42;45.79;99398.44;1663776;85;21050;-91
2022/11/17 01:11:31;;;;;;;13.35;10.20;;;;;;;20.43;45.79;99403.39;1677811;85;21124;-93
2022/11/17 01:13:58;;;;;;;13.65;9.63;;;;;;;20.43;45.79;99396.48;1679012;84;21062;-91
2022/11/17 01:16:25;;;;;;;16.62;10.28;;;;;;;20.42;45.79;99388.77;1671959;85;21141;-92
2022/11/17 01:18:52;;;;;;;13.28;10.43;;;;;;;20.42;45.77;99384.63;1660382;85;21062;-91
2022/11/17 01:21:24;;;;;;;12.35;9.45;;;;;;;20.42;45.75;99379.11;1687433;85;21014;-93
2022/11/17 01:23:52;;;;;;;12.63;9.98;;;;;;;20.41;45.73;99377.48;1689498;84;21046;-89
2022/11/17 01:26:24;;;;;;;12.43;10.20;;;;;;;20.41;45.74;99382.23;1675405;84;21047;-89
2022/11/17 01:28:51;;;;;;;14.00;10.45;;;;;;;20.40;45.72;99379.24;1669093;85;21036;-89
2022/11/17 01:31:22;;;;;;;13.20;10.60;;;;;;;20.40;45.73;99375.91;1665628;85;21160;-90
2022/11/17 01:33:49;;;;;;;13.85;10.48;;;;;;;20.40;45.71;99371.77;1684564;84;21586;-88
2022/11/17 01:36:25;;;;;;;13.50;10.30;;;;;;;20.40;45.71;99371.77;1678456;85;21001;-88
2022/11/17 01:38:52;;;;;;;14.55;10.72;;;;;;;20.40;45.71;99373.72;1690407;84;21075;-91
2022/11/17 01:41:24;;;;;;;12.90;10.53;;;;;;;20.39;45.70;99372.91;1685998;84;21046;-90
2022/11/17 01:43:54;;;;;;;12.33;10.18;;;;;;;20.38;45.69;99364.39;1640103;86;21129;-93
2022/11/17 01:46:37;;;;;;;16.52;11.73;;;;;;;20.38;45.67;99359.44;1660343;86;21051;-92
2022/11/17 01:49:18;;;;;;;14.78;10.70;;;;;;;20.37;45.68;99358.63;1660321;85;21069;-92
2022/11/17 01:51:54;;;;;;;13.38;10.48;;;;;;;20.37;45.66;99356.44;1672751;85;21026;-92
2022/11/17 01:54:21;;;;;;;14.10;10.20;;;;;;;20.37;45.65;99348.16;1661409;84;21065;-90
2022/11/17 01:56:50;;;;;;;11.97;9.73;;;;;;;20.35;45.65;99344.38;1672126;85;21195;-92
2022/11/17 01:59:36;;;;;;;13.40;10.15;;;;;;;20.34;45.63;99340.00;1668025;85;21041;-92
2022/11/17 02:02:02;;;;;;;13.48;10.08;;;;;;;20.35;45.63;99344.38;1646156;83;21127;-92
2022/11/17 02:04:40;;;;;;;13.08;9.95;;;;;;;20.35;45.62;99342.19;1675180;85;21491;-93
2022/11/17 02:07:23;;;;;;;14.38;10.80;;;;;;;20.33;45.60;99343.11;1680752;83;21113;-90
2022/11/17 02:09:51;;;;;;;12.23;10.23;;;;;;;20.32;45.60;99340.95;1678082;85;21600;-93
2022/11/17 02:12:17;;;;;;;14.15;10.35;;;;;;;20.33;45.59;99343.11;1667432;85;21061;-92
2022/11/17 02:14:46;;;;;;;14.50;10.60;;;;;;;20.33;45.60;99344.48;1676824;85;21097;-92
2022/11/17 02:17:16;;;;;;;13.85;10.10;;;;;;;20.32;45.58;99336.00;1677799;85;21090;-92
2022/11/17 02:19:45;;;;;;;13.48;9.93;;;;;;;20.33;45.57;99336.20;1659425;86;21615;-92
2022/11/17 02:22:46;;;;;;;14.07;10.10;;;;;;;20.32;45.58;99340.95;1662663;84;21116;-89
2022/11/17 02:25:20;;;;;;;14.63;10.43;;;;;;;20.32;45.55;99336.00;1679296;83;21133;-93
2022/11/17 02:28:07;;;;;;;12.40;10.55;;;;;;;20.31;45.55;99335.19;1677243;85;21081;-93
2022/11/17 02:30:39;;;;;;;17.30;9.80;;;;;;;20.31;45.56;99334.38;1667354;85;21542;-92
2022/11/17 02:33:19;;;;;;;12.73;10.32;;;;;;;20.31;45.53;99333.00;1667513;84;21030;-93
2022/11/17 02:36:19;;;;;;;12.28;9.53;;;;;;;20.30;45.53;99325.86;1674838;84;22111;-93
2022/11/17 02:38:53;;;;;;;11.93;9.13;;;;;;;20.29;45.54;99325.59;1684144;83;21053;-91
2022/11/17 02:41:55;;;;;;;13.68;9.25;;;;;;;20.28;45.53;99327.58;1670876;85;21046;-90
2022/11/17 02:44:52;;;;;;;11.35;9.35;;;;;;;20.28;45.54;99324.02;1679853;85;21090;-90
2022/11/17 02:47:25;;;;;;;13.05;9.93;;;;;;;20.26;45.52;99318.83;1665042;85;21099;-92
2022/11/17 02:49:59;;;;;;;13.35;10.20;;;;;;;20.26;45.51;99324.35;1674267;85;22065;-91
2022/11/17 02:52:26;;;;;;;12.55;10.32;;;;;;;20.26;45.50;99313.88;1688396;83;21115;-91
2022/11/17 02:54:55;;;;;;;13.88;9.95;;;;;;;20.27;45.51;99321.02;1667628;84;21133;-91
2022/11/17 02:57:34;;;;;;;13.40;9.80;;;;;;;20.26;45.49;99315.27;1648801;85;21014;-91
2022/11/17 03:00:16;;;;;;;13.32;10.32;;;;;;;20.26;45.51;99310.55;1676980;85;21038;-92
2022/11/17 03:03:31;;;;;;;14.78;10.23;;;;;;;20.26;45.50;99307.78;1667548;83;21122;-91
2022/11/17 03:06:20;;;;;;;15.28;9.80;;;;;;;20.26;45.48;99310.55;1664717;85;21097;-91
2022/11/17 03:09:00;;;;;;;13.58;10.08;;;;;;;20.25;45.46;99303.98;1686418;83;21062;-89
2022/11/17 03:11:45;;;;;;;12.30;10.30;;;;;;;20.24;45.47;99303.78;1685663;83;21556;-92
2022/11/17 03:14:30;;;;;;;13.65;10.23;;;;;;;20.22;45.46;99302.73;1636091;85;21583;-91
2022/11/17 03:17:01;;;;;;;13.45;10.20;;;;;;;20.22;45.46;99293.64;1660894;85;21898;-92
2022/11/17 03:19:37;;;;;;;15.03;10.10;;;;;;;20.23;45.46;99298.02;1664230;85;21061;-93
2022/11/17 03:22:13;;;;;;;10.93;9.30;;;;;;;20.23;45.46;99299.41;1674559;85;21082;-93
2022/11/17 03:24:55;;;;;;;12.28;9.65;;;;;;;20.22;45.45;99296.41;1680440;83;21114;-92
2022/11/17 03:27:37;;;;;;;13.55;9.90;;;;;;;20.22;45.45;99296.41;1671975;84;22381;-92
2022/11/17 03:30:06;;;;;;;13.88;10.05;;;;;;;20.21;45.43;99296.98;1684994;83;21188;-93
2022/11/17 03:32:36;;;;;;;13.43;10.48;;;;;;;20.22;45.44;99299.17;1672398;85;21093;-92
2022/11/17 03:35:13;;;;;;;12.93;10.15;;;;;;;20.21;45.44;99297.55;1660009;86;21104;-92
2022/11/17 03:37:43;;;;;;;12.55;9.45;;;;;;;20.22;45.44;99293.08;1678375;85;21113;-92
2022/11/17 03:40:13;;;;;;;11.97;9.60;;;;;;;20.21;45.41;99288.70;1665635;85;21130;-92
2022/11/17 03:42:42;;;;;;;12.30;9.70;;;;;;;20.20;45.42;99283.55;1681674;85;21109;-92
2022/11/17 03:45:14;;;;;;;15.83;10.28;;;;;;;20.21;45.40;99285.94;1677280;85;21068;-93
2022/11/17 03:47:40;;;;;;;12.47;10.40;;;;;;;20.21;45.40;99287.31;1671069;85;21069;-92
2022/11/17 03:50:15;;;;;;;11.88;9.43;;;;;;;20.21;45.40;99281.80;1687549;83;21125;-93
2022/11/17 03:52:41;;;;;;;11.18;9.18;;;;;;;20.21;45.39;99276.84;1691096;83;21091;-92
2022/11/17 03:55:08;;;;;;;10.98;9.48;;;;;;;20.22;45.37;99275.70;1671951;85;21027;-93
2022/11/17 03:57:52;;;;;;;12.15;9.63;;;;;;;20.21;45.38;99274.89;1646020;85;21129;-91
2022/11/17 04:00:18;;;;;;;12.75;9.65;;;;;;;20.21;45.37;99265.80;1678152;85;21086;-92
2022/11/17 04:02:46;;;;;;;11.60;9.45;;;;;;;20.21;45.35;99253.37;1664588;85;21484;-91
2022/11/17 04:05:15;;;;;;;12.40;10.03;;;;;;;20.22;45.40;99245.32;1678638;85;21101;-91
2022/11/17 04:07:46;;;;;;;10.93;9.10;;;;;;;20.24;45.42;99246.56;1664787;85;21824;-92
2022/11/17 04:10:16;;;;;;;12.00;9.23;;;;;;;20.26;45.38;99244.27;1674176;84;21069;-92
2022/11/17 04:18:11;;;;;;;11.93;8.68;;;;;;;20.40;45.28;99242.51;1671174;85;21141;-92
2022/11/17 04:20:38;;;;;;;11.05;8.68;;;;;;;20.47;45.20;99244.07;1687266;83;21141;-91
2022/11/17 04:23:10;;;;;;;12.37;8.78;;;;;;;20.55;45.13;99240.91;1678435;84;22174;-92
2022/11/17 04:28:37;;;;;;;9.70;7.92;;;;;;;20.71;44.97;99253.58;1668001;85;21607;-93
2022/11/17 04:31:14;;;;;;;9.85;7.97;;;;;;;20.81;44.86;99257.21;1686021;83;21050;-92
2022/11/17 04:33:48;;;;;;;11.35;7.95;;;;;;;20.90;44.74;99254.27;1689556;83;21138;-92
2022/11/17 04:36:17;;;;;;;10.00;7.72;;;;;;;21.02;44.64;99255.56;1661176;85;21010;-92
2022/11/17 04:38:46;;;;;;;11.15;7.78;;;;;;;21.12;44.51;99254.22;1671807;85;21081;-91
2022/11/17 04:43:58;;;;;;;9.60;7.45;;;;;;;21.33;44.26;99238.17;1679530;85;21069;-92
2022/11/17 04:46:24;;;;;;;10.03;7.60;;;;;;;21.45;44.16;99234.47;1659702;85;21580;-92
2022/11/17 04:48:53;;;;;;;11.30;8.05;;;;;;;21.54;44.02;99225.39;1670374;85;21066;-92
2022/11/17 04:51:20;;;;;;;9.48;7.17;;;;;;;21.65;43.93;99220.30;1687295;84;21457;-92
2022/11/17 04:53:47;;;;;;;9.83;7.47;;;;;;;21.74;43.80;99215.94;1676294;83;21029;-93
2022/11/17 04:56:13;;;;;;;8.38;6.72;;;;;;;21.84;43.69;99209.84;1687006;83;21853;-93
2022/11/17 04:58:40;;;;;;;9.85;7.53;;;;;;;21.93;43.58;99213.81;1682215;85;21203;-92
2022/11/17 05:01:12;;;;;;;9.28;7.83;;;;;;;22.01;43.49;99210.02;1660819;85;21093;-92
2022/11/17 05:03:51;;;;;;;9.15;7.40;;;;;;;22.09;43.38;99208.98;1686248;83;21054;-92
2022/11/17 05:06:22;;;;;;;9.53;7.35;;;;;;;22.18;43.23;99205.41;1684626;85;21145;-93
2022/11/17 05:08:55;;;;;;;9.23;7.70;;;;;;;22.24;43.13;99195.03;1674651;85;21141;-92
2022/11/17 05:14:12;;;;;;;10.75;7.75;;;;;;;22.37;42.95;99197.05;1667490;85;21019;-93
2022/11/17 05:19:25;;;;;;;10.58;7.58;;;;;;;22.49;42.81;99193.33;1678159;85;21018;-92
2022/11/17 05:21:52;;;;;;;9.75;8.23;;;;;;;22.54;42.73;99190.22;1670866;84;21034;-89
2022/11/17 05:24:18;;;;;;;10.13;8.50;;;;;;;22.55;42.66;99195.98;1685613;84;21072;-91
2022/11/17 05:26:45;;;;;;;11.57;8.80;;;;;;;22.56;42.61;99193.44;1687084;85;21046;-90
2022/11/17 05:29:14;;;;;;;11.83;9.00;;;;;;;22.59;42.53;99193.50;1663397;85;21092;-91
2022/11/17 05:31:40;;;;;;;13.10;9.03;;;;;;;22.62;42.43;99179.47;1687283;83;21090;-92
2022/11/17 05:34:08;;;;;;;12.55;9.23;;;;;;;22.62;42.36;99184.43;1685826;83;21117;-90
2022/11/17 05:36:34;;;;;;;12.55;9.10;;;;;;;22.61;42.28;99180.66;1684500;83;21600;-88
2022/11/17 05:39:04;;;;;;;13.58;9.25;;;;;;;22.60;42.24;99179.05;1684094;83;21057;-91
2022/11/17 05:41:30;;;;;;;15.60;9.08;;;;;;;22.58;42.17;99179.41;1687844;83;21082;-87
2022/11/17 05:43:57;;;;;;;13.93;10.53;;;;;;;22.57;42.10;99174.26;1728251;80;135263;-77
2022/11/17 05:46:23;;;;;;;17.10;10.00;;;;;;;22.54;42.06;99174.98;1757129;80;21029;-79
2022/11/17 05:48:49;;;;;;;22.05;11.57;;;;;;;22.48;42.08;99173.12;1762833;80;21569;-79
2022/11/17 05:51:19;;;;;;;20.97;11.43;;;;;;;22.43;42.06;99172.03;1760446;81;21497;-79
2022/11/17 05:53:52;;;;;;;20.90;11.80;;;;;;;22.37;42.03;99166.56;1760731;80;21220;-78
2022/11/17 05:56:38;;;;;;;27.02;11.63;;;;;;;22.32;42.10;99166.28;1745458;80;21084;-76
2022/11/17 05:59:25;;;;;;;28.07;12.75;;;;;;;22.24;42.16;99156.25;1758074;80;21081;-79
2022/11/17 06:02:06;;;;;;;34.98;13.80;;;;;;;22.15;42.29;99161.22;1749283;80;21219;-78
2022/11/17 06:04:32;;;;;;;36.50;13.08;;;;;;;22.10;42.37;99153.23;1732195;80;27623;-78
2022/11/17 06:07:00;;;;;;;25.32;12.98;;;;;;;22.06;42.47;99144.64;1754440;80;21066;-78
2022/11/17 06:09:31;;;;;;;32.70;13.40;;;;;;;22.03;42.49;99143.97;1749375;80;20977;-78
2022/11/17 06:12:05;;;;;;;26.90;13.90;;;;;;;21.98;42.50;99156.75;1755807;80;21042;-80
2022/11/17 06:14:31;;;;;;;26.30;13.65;;;;;;;21.95;42.45;99151.92;1745725;80;21127;-79
2022/11/17 06:17:02;;;;;;;29.10;14.30;;;;;;;21.92;42.42;99154.02;1725334;80;21682;-81
2022/11/17 06:19:33;;;;;;;26.48;14.05;;;;;;;21.88;42.40;99164.45;1751460;80;21117;-80
2022/11/17 06:22:00;;;;;;;22.22;12.53;;;;;;;21.87;42.36;99160.66;1750799;80;21610;-81
2022/11/17 06:24:26;;;;;;;24.90;13.13;;;;;;;21.86;42.35;99164.00;1746598;80;21187;-80
2022/11/17 06:26:53;;;;;;;25.57;13.40;;;;;;;21.85;42.38;99153.31;1726217;81;21944;-80
2022/11/17 06:29:19;;;;;;;32.17;13.55;;;;;;;21.84;42.43;99167.73;1717371;81;21072;-80
2022/11/17 06:31:45;;;;;;;21.45;13.38;;;;;;;21.85;42.44;99169.92;1760608;80;21026;-78
2022/11/17 06:34:12;;;;;;;20.52;13.10;;;;;;;21.85;42.44;99179.00;1754722;80;21049;-81
2022/11/17 06:36:38;;;;;;;24.82;13.62;;;;;;;21.84;42.46;99180.77;1753892;80;21073;-79
2022/11/17 06:39:04;;;;;;;21.23;12.90;;;;;;;21.84;42.52;99184.34;1744813;80;21753;-77
2022/11/17 06:41:31;;;;;;;24.50;13.03;;;;;;;21.84;42.54;99190.46;1753189;80;21571;-75
2022/11/17 06:43:57;;;;;;;32.20;13.25;;;;;;;21.85;42.57;99193.45;1750588;80;21082;-78
2022/11/17 06:46:23;;;;;;;22.87;15.43;;;;;;;21.84;42.62;99200.95;1748001;80;21085;-79
2022/11/17 06:48:53;;;;;;;25.32;12.65;;;;;;;21.83;42.60;99197.16;1723759;81;21854;-81
2022/11/17 06:51:21;;;;;;;33.78;13.18;;;;;;;21.81;42.79;99189.81;1752769;80;21956;-84
2022/11/17 06:53:47;;;;;;;33.58;13.55;;;;;;;21.79;43.35;99187.40;1756645;80;22146;-84
2022/11/17 06:56:17;;;;;;;34.67;13.03;;;;;;;21.76;43.77;99181.22;1756027;80;21029;-85
2022/11/17 06:58:44;;;;;;;24.90;12.60;;;;;;;21.75;44.08;99186.53;1756294;80;21548;-89
2022/11/17 07:01:12;;;;;;;25.02;12.18;;;;;;;21.71;44.28;99175.16;1731491;81;21140;-84
2022/11/17 07:03:39;;;;;;;30.10;13.83;;;;;;;21.70;44.57;99173.55;1754310;81;21081;-78
2022/11/17 07:06:07;;;;;;;26.40;13.83;;;;;;;21.68;44.75;99164.24;1751474;80;21116;-83
2022/11/17 07:08:34;;;;;;;32.75;13.95;;;;;;;21.67;44.75;99162.63;1756844;80;21405;-83
2022/11/17 07:11:11;;;;;;;24.82;14.15;;;;;;;21.67;44.68;99164.59;1751029;80;21063;-84
2022/11/17 07:13:37;;;;;;;30.90;13.83;;;;;;;21.66;44.60;99162.41;1751655;81;21072;-82
2022/11/17 07:16:10;;;;;;;24.25;13.95;;;;;;;21.64;44.52;99154.27;1727219;80;21092;-82
2022/11/17 07:18:37;;;;;;;28.38;14.83;;;;;;;21.62;44.48;99149.66;1749118;80;21128;-81
2022/11/17 07:21:04;;;;;;;24.37;14.20;;;;;;;21.61;44.43;99158.55;1751023;80;21049;-78
2022/11/17 07:23:31;;;;;;;23.60;14.45;;;;;;;21.60;44.40;99147.86;1752118;80;21060;-80
2022/11/17 07:25:58;;;;;;;25.32;14.07;;;;;;;21.58;44.37;99143.25;1753819;80;21101;-79
2022/11/17 07:28:25;;;;;;;21.85;13.68;;;;;;;21.57;44.36;99138.30;1748959;80;21480;-80
2022/11/17 07:30:52;;;;;;;26.55;15.75;;;;;;;21.56;44.37;99131.73;1750432;80;21523;-81
2022/11/17 07:33:18;;;;;;;29.70;14.63;;;;;;;21.54;44.33;99125.20;1719750;81;21658;-80
2022/11/17 07:35:45;;;;;;;24.65;15.03;;;;;;;21.54;44.32;99120.24;1752407;80;21069;-81
2022/11/17 07:38:11;;;;;;;25.05;15.75;;;;;;;21.53;44.31;99117.25;1753380;80;21066;-81
2022/11/17 07:40:39;;;;;;;23.50;15.28;;;;;;;21.52;44.28;99115.64;1752070;80;21367;-80
2022/11/17 07:43:05;;;;;;;30.62;15.15;;;;;;;21.50;44.26;99124.33;1750565;80;21069;-81
2022/11/17 07:45:34;;;;;;;23.57;15.85;;;;;;;21.50;44.25;99122.13;1718260;81;21427;-79
2022/11/17 07:48:02;;;;;;;27.45;16.37;;;;;;;21.48;44.26;99126.64;1748009;80;21073;-80
2022/11/17 07:50:28;;;;;;;31.93;15.70;;;;;;;21.46;44.33;99128.17;1751523;80;21558;-77
2022/11/17 07:52:55;;;;;;;24.77;15.75;;;;;;;21.40;44.68;99131.23;1747094;80;21324;-80
2022/11/17 07:55:22;;;;;;;31.40;16.20;;;;;;;21.32;45.00;99128.09;1717690;80;21567;-80
2022/11/17 07:57:59;;;;;;;31.90;16.27;;;;;;;21.26;45.32;99129.53;1750500;80;21109;-81
2022/11/17 08:00:30;;;;;;;37.17;16.70;;;;;;;21.19;45.49;99129.96;1754098;80;21084;-86
2022/11/17 08:03:03;;;;;;;43.45;17.45;;;;;;;21.15;45.69;99133.23;1749593;80;21136;-82
2022/11/17 08:05:32;;;;;;;47.80;16.55;;;;;;;21.14;45.87;99124.70;1741801;80;21127;-82
2022/11/17 08:07:59;;;;;;;48.95;17.80;;;;;;;21.14;45.92;99122.75;1748096;80;21042;-78
2022/11/17 08:10:33;;;;;;;47.10;17.32;;;;;;;21.14;46.00;99125.52;1722453;81;21002;-79
2022/11/17 08:13:02;;;;;;;40.88;17.57;;;;;;;21.14;46.01;99115.03;1668583;83;20952;-78
2022/11/17 08:15:28;;;;;;;41.40;23.25;;;;;;;21.13;46.00;99116.22;1700180;82;21061;-80
2022/11/17 08:17:56;;;;;;;45.00;22.00;;;;;;;21.13;46.02;99118.98;1744177;80;21901;-80
2022/11/17 08:20:22;;;;;;;45.10;23.20;;;;;;;21.13;46.08;99111.45;1740681;80;21085;-82
2022/11/17 08:22:49;;;;;;;57.23;25.30;;;;;;;21.14;46.08;99112.27;1716717;81;21083;-81
2022/11/17 08:25:16;;;;;;;41.20;22.05;;;;;;;21.14;46.09;99120.56;1738941;80;21085;-82
2022/11/17 08:27:42;;;;;;;41.25;19.65;;;;;;;21.14;46.12;99124.13;1743424;80;21658;-80
2022/11/17 08:30:09;;;;;;;44.08;21.35;;;;;;;21.13;46.19;99123.91;1750632;80;21810;-80
2022/11/17 08:32:36;;;;;;;45.05;21.68;;;;;;;21.12;46.23;99121.48;1752877;80;21470;-81
2022/11/17 08:35:05;;;;;;;36.28;20.82;;;;;;;21.13;46.28;99118.98;1752678;80;21032;-80
2022/11/17 08:37:39;;;;;;;43.58;20.00;;;;;;;21.12;46.30;99115.95;1742484;80;21041;-84
2022/11/17 08:40:09;;;;;;;30.55;19.70;;;;;;;21.11;46.34;99130.36;1740999;80;21101;-83
2022/11/17 08:42:36;;;;;;;31.75;20.12;;;;;;;21.09;46.38;99135.44;1743957;80;21203;-85
2022/11/17 08:45:04;;;;;;;40.88;19.80;;;;;;;21.09;46.43;99139.58;1740925;80;21065;-84
2022/11/17 08:47:30;;;;;;;36.33;19.55;;;;;;;21.09;46.47;99148.48;1735727;81;21057;-86
2022/11/17 08:49:57;;;;;;;39.10;19.12;;;;;;;21.08;46.59;99148.26;1736154;81;21536;-85
2022/11/17 08:52:23;;;;;;;42.27;18.95;;;;;;;21.07;47.07;99151.60;1735272;80;21088;-84
2022/11/17 08:54:51;;;;;;;46.35;20.02;;;;;;;21.09;47.44;99162.31;1735488;81;21112;-86
2022/11/17 08:57:20;;;;;;;29.48;17.77;;;;;;;21.11;47.66;99158.02;1728861;80;21069;-84
2022/11/17 08:59:46;;;;;;;34.65;17.55;;;;;;;21.16;47.91;99157.77;1727374;81;21058;-79
2022/11/17 09:02:19;;;;;;;37.78;17.85;;;;;;;21.15;47.77;99154.78;1715777;81;21031;-81
2022/11/17 09:04:46;;;;;;;30.60;14.87;;;;;;;21.19;47.96;99148.74;1724472;80;21085;-81
2022/11/17 09:07:12;;;;;;;29.85;15.70;;;;;;;21.26;48.40;99148.12;1722359;80;21523;-81
2022/11/17 09:09:39;;;;;;;40.75;15.13;;;;;;;21.34;48.56;99151.25;1739154;80;21029;-81
2022/11/17 09:12:06;;;;;;;34.30;15.32;;;;;;;21.43;48.51;99146.28;1707927;82;21099;-79
2022/11/17 09:14:38;;;;;;;29.15;14.33;;;;;;;21.52;48.45;99143.31;1748435;81;21571;-80
2022/11/17 09:17:07;;;;;;;28.73;13.53;;;;;;;21.61;48.42;99142.52;1749704;80;21567;-80
2022/11/17 09:19:33;;;;;;;29.12;13.13;;;;;;;21.71;48.39;99131.67;1751784;80;21179;-79
2022/11/17 09:22:00;;;;;;;32.20;13.38;;;;;;;21.81;48.32;99135.83;1741448;80;21334;-80
2022/11/17 09:24:26;;;;;;;28.45;13.30;;;;;;;21.89;48.30;99125.11;1751133;80;21080;-79
2022/11/17 09:26:56;;;;;;;30.35;13.40;;;;;;;22.00;48.31;99119.20;1742373;80;21017;-81
2022/11/17 09:29:22;;;;;;;21.77;12.70;;;;;;;22.09;48.17;99121.73;1722438;81;21812;-80
2022/11/17 09:31:51;;;;;;;34.73;14.07;;;;;;;22.17;48.17;99119.31;1750902;80;21040;-82
2022/11/17 09:34:18;;;;;;;30.72;13.55;;;;;;;22.22;48.09;99103.78;1756366;80;21019;-84
2022/11/17 09:36:45;;;;;;;21.12;13.18;;;;;;;22.26;48.02;99098.52;1724176;80;21661;-83
2022/11/17 09:39:12;;;;;;;25.02;13.25;;;;;;;22.30;47.98;99095.22;1750112;80;21584;-82
2022/11/17 09:41:45;;;;;;;29.07;14.00;;;;;;;22.33;48.05;99088.93;1747230;80;21178;-82
2022/11/17 09:44:25;;;;;;;31.80;13.83;;;;;;;22.35;48.20;99087.19;1748242;80;21517;-79
2022/11/17 09:47:13;;;;;;;36.30;13.53;;;;;;;22.37;48.28;99085.41;1747556;80;21564;-79
2022/11/17 09:50:01;;;;;;;26.45;13.88;;;;;;;22.37;48.32;99090.95;1714558;80;21058;-82
2022/11/17 09:52:48;;;;;;;28.20;13.78;;;;;;;22.32;48.56;99085.94;1778267;78;21732;-82
2022/11/17 09:55:44;;;;;;;28.07;13.95;;;;;;;22.30;48.74;99087.48;1782313;78;22153;-82
2022/11/17 09:58:33;;;;;;;21.70;11.80;;;;;;;22.28;48.95;99087.84;1782179;78;21133;-84
2022/11/17 10:01:00;;;;;;;29.32;14.73;;;;;;;22.21;49.18;99078.63;1762111;78;21087;-81
2022/11/17 10:03:35;;;;;;;22.15;12.82;;;;;;;22.17;49.16;99082.72;1785815;78;21287;-80
2022/11/17 10:06:05;;;;;;;34.25;13.35;;;;;;;22.14;49.14;99079.31;1779200;78;21931;-80
2022/11/17 10:09:04;;;;;;;26.30;12.13;;;;;;;22.15;49.06;99078.73;1757636;78;21665;-82
2022/11/17 10:11:35;;;;;;;22.75;11.83;;;;;;;22.15;49.00;99073.97;1781482;78;22008;-82
2022/11/17 10:14:04;;;;;;;;;;;;;;;22.16;48.93;99079.73;1793039;78;21084;-82
2022/11/17 10:16:30;;;;;;;22.75;11.28;;;;;;;22.16;48.94;99079.73;1784506;78;20208;-84
2022/11/17 10:18:57;;;;;;;24.57;11.88;;;;;;;22.16;48.80;99072.80;1787603;78;21092;-82
2022/11/17 10:21:23;;;;;;;20.55;11.50;;;;;;;22.18;48.76;99076.02;1761346;78;21105;-81
2022/11/17 10:23:57;;;;;;;21.10;11.25;;;;;;;22.18;48.69;99075.22;1750911;80;21131;-82
2022/11/17 10:26:24;;;;;;;21.85;11.95;;;;;;;22.21;48.60;99070.31;1780696;79;21539;-83
2022/11/17 10:29:10;;;;;;;24.30;11.20;;;;;;;22.23;48.49;99059.67;1785264;78;20980;-85
2022/11/17 10:31:43;;;;;;;19.50;11.08;;;;;;;22.24;48.45;99054.33;1786153;79;21333;-83
2022/11/17 10:34:36;;;;;;;21.02;12.05;;;;;;;22.24;48.35;99055.72;1788499;78;21728;-81
2022/11/17 10:37:26;;;;;;;17.80;10.68;;;;;;;22.27;48.31;99048.07;1763779;78;21112;-82
2022/11/17 10:40:09;;;;;;;15.60;10.25;;;;;;;22.30;48.24;99042.58;1787318;78;21052;-82
2022/11/17 10:42:44;;;;;;;17.85;10.82;;;;;;;22.30;48.19;99025.96;1776638;78;21080;-82
2022/11/17 10:45:17;;;;;;;23.20;11.05;;;;;;;22.32;48.16;99021.41;1787851;78;21032;-83
2022/11/17 10:47:44;;;;;;;14.75;10.25;;;;;;;22.35;48.11;99032.36;1787537;79;21070;-84
2022/11/17 10:50:26;;;;;;;17.23;10.00;;;;;;;22.36;48.04;99023.69;1768953;79;21362;-81
2022/11/17 10:52:55;;;;;;;18.73;9.73;;;;;;;22.40;48.10;99020.96;1768999;78;21116;-83
2022/11/17 10:55:28;;;;;;;18.90;9.28;;;;;;;22.40;48.18;99014.03;1748725;79;21126;-81
2022/11/17 10:58:08;;;;;;;15.10;7.62;;;;;;;22.43;48.27;99021.59;1724146;78;21013;-82
2022/11/17 11:00:36;;;;;;;18.43;8.77;;;;;;;22.45;48.43;99020.66;1751116;78;21379;-81
2022/11/17 11:03:22;;;;;;;18.00;8.38;;;;;;;22.48;48.55;99040.09;1781027;78;21124;-80
2022/11/17 11:06:01;;;;;;;16.05;6.87;;;;;;;22.48;48.64;99040.09;1769745;79;21283;-80
2022/11/17 11:08:42;;;;;;;11.28;7.05;;;;;;;22.51;48.64;99041.31;1769739;78;21076;-83
2022/11/17 11:11:17;;;;;;;15.18;7.65;;;;;;;22.52;48.69;99034.02;1770845;80;21096;-81
2022/11/17 11:13:52;;;;;;;11.90;7.37;;;;;;;22.56;48.69;99021.59;1732546;82;21118;-82
2022/11/17 11:16:20;;;;;;;12.50;6.50;;;;;;;22.59;48.81;99025.00;1712629;82;22676;-82
2022/11/17 11:18:48;;;;;;;17.55;7.90;;;;;;;22.61;48.81;99030.40;1741807;81;21602;-84
2022/11/17 11:21:35;;;;;;;12.30;7.42;;;;;;;22.64;48.79;99025.48;1736065;81;21105;-82
2022/11/17 11:24:35;;;;;;;14.58;7.47;;;;;;;22.66;48.80;99045.91;1748242;80;21651;-83
2022/11/17 11:27:08;;;;;;;;;;;;;;;22.70;48.74;99049.56;1753852;80;21089;-80
2022/11/17 11:30:04;;;;;;;13.05;8.25;;;;;;;22.71;48.77;99056.11;1747627;80;21185;-84
2022/11/17 11:32:45;;;;;;;12.88;8.83;;;;;;;22.72;48.61;99058.30;1778269;79;21009;-80
2022/11/17 11:35:32;;;;;;;17.07;9.45;;;;;;;22.71;48.58;99067.20;1768733;79;21049;-80
2022/11/17 11:38:26;;;;;;;15.98;9.50;;;;;;;22.72;48.52;99072.96;1709821;83;21018;-84
2022/11/17 11:41:46;;;;;;;13.75;8.65;;;;;;;22.71;48.51;99075.52;1705481;82;21211;-81
2022/11/17 11:44:25;;;;;;;16.02;9.55;;;;;;;22.70;48.48;99080.83;1712385;82;21144;-83
2022/11/17 11:46:57;;;;;;;19.02;10.80;;;;;;;22.66;48.43;99081.95;1746064;80;21020;-86
2022/11/17 11:49:50;;;;;;;22.73;13.08;;;;;;;22.63;48.39;99090.41;1733274;81;21570;-83
2022/11/17 11:52:21;;;;;;;13.68;10.40;;;;;;;22.61;48.36;99087.80;1719345;81;21078;-82
2022/11/17 11:55:06;;;;;;;18.57;9.98;;;;;;;22.56;48.28;99093.66;1696245;82;21081;-85
2022/11/17 11:57:38;;;;;;;14.80;9.75;;;;;;;22.48;48.41;99090.56;1703764;81;21970;-84
2022/11/17 12:00:08;;;;;;;19.10;9.90;;;;;;;22.43;48.57;99097.22;1724943;81;21103;-85
2022/11/17 12:03:06;;;;;;;21.77;11.00;;;;;;;22.39;48.74;99090.02;1721644;81;21107;-83
2022/11/17 12:05:38;;;;;;;17.98;10.68;;;;;;;22.36;48.75;99102.65;1730271;80;21113;-83
2022/11/17 12:08:16;;;;;;;15.53;10.03;;;;;;;22.35;48.82;99109.35;1741347;80;21105;-83